Tiempo atmosférico en la estación meteorológica de Benavente, Zamora (715 m.)



Fecha
DESCASC
Temp. máxima en grados centígrados (hora)
DESCASC
Temp. mínima en grados centígrados (hora)
DESCASC
Temp. media en grados centígrados
DESCASC
Racha de viento máxima en m/sg (hora)
DESCASC
Velocidad máxima media en intervalos de 10 minutos(hora)
DESCASC
Precipitaciones diarias en mm
DESCASC
Precipitaciones de 00:00 a 06:00 en mm
DESCASC
Precipitaciones de 06:00 a 12:00 en mm
DESCASC
Precipitaciones de 12:00 a 18:00 en mm
DESCASC
Precipitaciones de 18:00 a 24:00 en mm
DESCASC
18-08-2019 27.4 (19:20) 13.8 (07:10) 20.6 11.94 (15:10) 5.28 (15:30) 0 0 0 0 0
17-08-2019 34.1 (17:10) 13.6 (07:50) 23.8 10.28 (18:40) 4.44 (18:00) 0 0 0 0 0
16-08-2019 34.1 (18:40) 14.9 (07:50) 24.5 7.22 (20:20) 3.89 (20:20) 0 0 0 0 0
15-08-2019 32.1 (18:20) 14.5 (00:00) 23.3 7.5 (22:50) 3.89 (22:50) 0 0 0 0 0
14-08-2019 31.8 (18:40) 12.6 (00:00) 22.2 10.83 (22:30) 5.28 (22:30) 0 0 0 0 0
13-08-2019 27 (18:40) 10.4 (00:00) 18.7 8.89 (00:50) 4.17 (00:50) 0 0 0 0 0
12-08-2019 22.9 (16:50) 9.9 (00:00) 16.4 8.33 (09:40) 4.17 (09:50) 0 0 0 0 0
11-08-2019 24.6 (17:10) 13 (00:00) 18.8 13.33 (20:10) 6.94 (20:20) 1.6 1.4 0.2 0 0
10-08-2019 27.5 (17:50) 14.5 (00:00) 21 9.72 (16:00) 4.17 (23:50) 0 0 0 0 0
09-08-2019 25.6 (16:00) 17 (00:00) 21.3 12.5 (07:20) 5.56 (13:40) 1.2 0 1.2 0 0
08-08-2019 28.7 (18:50) 18.3 (00:00) 23.5 11.67 (17:00) 5.28 (19:40) 0.2 0 0.2 0 0
07-08-2019 26 (14:10) 17.2 (00:00) 21.6 12.22 (14:20) 4.72 (18:30) 2 0 0 0 2
06-08-2019 31.6 (16:30) 16.4 (00:00) 24 9.72 (20:40) 5 (20:50) 0 0 0 0 0
05-08-2019 33.1 (17:40) 16.2 (00:00) 24.6 7.22 (00:20) 3.61 (00:20) 0 0 0 0 0
04-08-2019 33.3 (18:10) 16.2 (00:00) 24.8 11.39 (15:00) 4.17 (22:50) 0 0 0 0 0
03-08-2019 34.6 (18:40) 16.7 (00:00) 25.6 8.33 (22:30) 4.17 (22:00) 0 0 0 0 0
02-08-2019 32.6 (18:10) 14.2 (00:00) 23.4 6.39 (01:00) 3.06 (00:10) 0 0 0 0 0
01-08-2019 31.3 (18:50) 13.2 (00:00) 22.2 9.17 (23:00) 4.72 (23:00) 0 0 0 0 0
31-07-2019 26.8 (18:30) 11.4 (00:00) 19.1 8.06 (01:10) 3.89 (09:10) 0 0 0 0 0
30-07-2019 24.9 (19:00) 10.7 (00:00) 17.8 10.83 (02:50) 5.56 (02:50) 0 0 0 0 0
29-07-2019 26.6 (16:20) 13.6 (00:00) 20.1 11.39 (17:10) 5 (17:10) 0 0 0 0 0
28-07-2019 28.3 (19:50) 11.5 (00:00) 19.9 6.67 (17:30) 3.33 (20:00) 0 0 0 0 0
27-07-2019 24.1 (16:10) 13.8 (00:00) 19 10.28 (19:50) 5 (18:50) 0 0 0 0 0
26-07-2019 28.6 (18:00) 15.8 (00:00) 22.2 8.33 (22:00) 4.72 (22:00) 0 0 0 0 0
25-07-2019 32.2 (16:20) 18.2 (00:00) 25.2 11.67 (14:30) 5.28 (17:10) 0 0 0 0 0
24-07-2019 35.3 (18:20) 17.9 (00:00) 26.6 10.56 (15:30) 5.28 (19:10) 0 0 0 0 0

Gráficas

Temp. máximas Temp. mínimas Temp. medias Precipitaciones Rachas de viento máximas Velocidades máximas media en intervalos de 10 minutos

Datos horarios

Fecha y hora oficial Temperatura (ºC) Velocidad del viento (km/h) Dirección del viento Racha (km/h) Dirección de racha Precipitación (mm) Presión (hPa) Tendencia (hPa) Humedad (%)
2019-08-22 23:00:00 19.7 4 Norte 9 Norte 0 938.3 0.5 42
2019-08-22 22:00:00 21.9 5 Norte 8 Nordeste 0 938 0.1 33
2019-08-22 21:00:00 26.9 4 Nordeste 11 Noroeste 0 937.8 -0.4 20
2019-08-22 20:00:00 30 6 Noroeste 16 Noroeste 0 937.8 -0.6 13
2019-08-22 19:00:00 30.3 7 Noroeste 19 Nordeste 0 937.9 -0.9 13
2019-08-22 18:00:00 30.7 4 Noroeste 17 Norte 0 938.2 -1.2 13
2019-08-22 17:00:00 30.3 5 Oeste 18 Norte 0 938.4 -1.6 14
2019-08-22 16:00:00 29.7 7 Este 23 Este 0 938.8 -1.7 14
2019-08-22 15:00:00 28.7 7 Este 27 Norte 0 939.4 -1.6 15
2019-08-22 14:00:00 27.1 7 Nordeste 23 Este 0 940 -1.1 17
2019-08-22 13:00:00 25.5 10 Nordeste 22 Nordeste 0 940.5 -0.7 21
2019-08-22 12:00:00 23.2 8 Nordeste 20 Nordeste 0 941 0 26
2019-08-22 11:00:00 20.1 7 Nordeste 20 Nordeste 0 941.1 0.7 41
2019-08-22 10:00:00 18 9 Nordeste 21 Nordeste 0 941.2 0.8 48
2019-08-22 09:00:00 15.9 9 Norte 21 Norte 0 941 0.5 58
2019-08-22 08:00:00 13.4 6 Norte 15 Norte 0 940.4 0 73
2019-08-22 07:00:00 14.3 8 Norte 21 Norte 0 940.4 -0.1 69
2019-08-22 06:00:00 14.8 6 Norte 19 Nordeste 0 940.5 0.2 71
2019-08-22 05:00:00 15.3 8 Norte 18 Norte 0 940.4 0.5 73
2019-08-22 04:00:00 15.7 6 Norte 12 Norte 0 940.5 0.7 72
2019-08-22 03:00:00 16.8 5 Norte 20 Norte 0 940.3 1 68
2019-08-22 02:00:00 17.6 9 Este 29 Este 0 939.9 1.4 65
2019-08-22 01:00:00 18.5 13 Nordeste 31 Nordeste 0 939.8 2.3 61
2019-08-22 00:00:00 20 12 Nordeste 40 Este 0 939.3 2.5 58
2019-08-21 23:00:00 21 12 Nordeste 39 Este 0 938.5 1.9 53
2019-08-21 22:00:00 22.4 4 Norte 8 Norte 0 937.5 0.9 47
2019-08-21 21:00:00 25.9 4 Nordeste 10 Nordeste 0 936.8 0.3 38
2019-08-21 20:00:00 28.2 7 Este 14 Sudeste 0 936.6 -0.3 29
2019-08-21 19:00:00 29 6 Sudeste 16 Sudeste 0 936.6 -0.7 26
2019-08-21 18:00:00 29.5 5 Este 15 Este 0 936.5 -1.4 27
2019-08-21 17:00:00 28.8 4 Nordeste 15 Norte 0 936.9 -1.4 30
2019-08-21 16:00:00 27.3 7 Nordeste 14 Norte 0 937.3 -1.6 34
2019-08-21 15:00:00 26.3 4 Sur 16 Este 0 937.9 -1.4 38
2019-08-21 14:00:00 24.3 6 Nordeste 22 Norte 0 938.3 -1.2 43
2019-08-21 13:00:00 22.3 9 Norte 22 Norte 0 938.9 -0.6 46
2019-08-21 12:00:00 20.6 10 Norte 24 Nordeste 0 939.3 -0.3 51
2019-08-21 11:00:00 18.4 9 Nordeste 22 Nordeste 0 939.5 -0.1 56
2019-08-21 10:00:00 16.5 13 Norte 26 Norte 0 939.5 0.2 60
2019-08-21 09:00:00 14.4 10 Norte 21 Norte 0 939.6 0.1 66
2019-08-21 08:00:00 13 7 Norte 17 Norte 0 939.6 -0.2 71
2019-08-21 07:00:00 13.3 9 Norte 21 Norte 0 939.3 -0.3 71
2019-08-21 06:00:00 13.9 9 Norte 18 Norte 0 939.5 -0.5 70
2019-08-21 05:00:00 14.1 6 Norte 20 Nordeste 0 939.8 -0.2 70
2019-08-21 04:00:00 14.6 9 Norte 22 Nordeste 0 939.6 -0.5 68
2019-08-21 03:00:00 14.9 9 Nordeste 28 Este 0 940 0 67
2019-08-21 02:00:00 15.3 13 Nordeste 33 Nordeste 0 940 0.1 65
2019-08-21 01:00:00 15.8 14 Este 32 Este 0 940.1 0.8 63
2019-08-21 00:00:00 16.6 15 Nordeste 32 Nordeste 0 940 1.1 59
2019-08-20 23:00:00 17.7 13 Nordeste 30 Nordeste 0 939.9 1.3 54
2019-08-20 22:00:00 18.8 9 Nordeste 20 Nordeste 0 939.3 0.8 47
2019-08-20 21:00:00 20.8 12 Nordeste 34 Nordeste 0 938.9 0.4 39
2019-08-20 20:00:00 23 17 Este 32 Nordeste 0 938.6 -0.2 32
2019-08-20 19:00:00 24.1 18 Este 41 Nordeste 0 938.5 -0.8 31
2019-08-20 18:00:00 24.5 18 Nordeste 39 Este 0 938.5 -1.2 28
2019-08-20 17:00:00 24.5 17 Este 39 Este 0 938.8 -1.1 29
2019-08-20 16:00:00 23.8 17 Nordeste 41 Nordeste 0 939.3 -0.6 32
2019-08-20 15:00:00 23.6 16 Este 39 Nordeste 0 939.7 -0.5 35
2019-08-20 14:00:00 22.9 15 Nordeste 40 Sudeste 0 939.9 -0.1 38
2019-08-20 13:00:00 21.4 20 Este 37 Este 0 939.9 0.2 42
2019-08-20 12:00:00 20.4 18 Nordeste 36 Nordeste 0 940.2 0.6 41
2019-08-20 11:00:00 18.9 13 Nordeste 28 Norte 0 940 1.2 50
2019-08-20 10:00:00 16.7 14 Nordeste 24 Nordeste 0 939.7 1.8 60
2019-08-20 09:00:00 14.2 6 Norte 14 Norte 0 939.6 1.9 69
2019-08-20 08:00:00 12 5 Norte 15 Norte 0 938.8 1.3 78
2019-08-20 07:00:00 11.7 7 Norte 14 Nordeste 0 937.9 0.5 81
2019-08-20 06:00:00 12.8 6 Norte 13 Norte 0 937.7 0.2 75
2019-08-20 05:00:00 13.8 6 Norte 16 Norte 0 937.5 -0.2 71
2019-08-20 04:00:00 14.7 6 Norte 22 Nordeste 0 937.4 -0.2 69
2019-08-20 03:00:00 15 6 Nordeste 22 Nordeste 0 937.5 0.5 67
2019-08-20 02:00:00 15.8 10 Nordeste 23 Nordeste 0 937.7 0.6 63
2019-08-20 01:00:00 16 14 Nordeste 28 Nordeste 0 937.6 1.3 62
2019-08-20 00:00:00 16.3 15 Nordeste 35 Este 0 937 1.6 61
2019-08-19 23:00:00 16.8 18 Este 38 Nordeste 0 937.1 2 63
2019-08-19 22:00:00 18.2 20 Este 52 Este 0 936.3 1.4 58
2019-08-19 21:00:00 20.3 17 Este 32 Este 0 935.4 0.7 50
2019-08-19 20:00:00 22.1 14 Este 31 Este 0 935.1 0.3 44
2019-08-19 19:00:00 23.4 15 Este 34 Este 0 934.9 -0.4 40
2019-08-19 18:00:00 25 9 Este 21 Nordeste 0 934.7 -1 35
2019-08-19 17:00:00 24.9 8 Este 22 Norte 0 934.8 -1.1 34
2019-08-19 16:00:00 24.7 5 Nordeste 24 Nordeste 0 935.3 -1 35
2019-08-19 15:00:00 23.8 11 Nordeste 24 Nordeste 0 935.7 -0.8 38
2019-08-19 14:00:00 22.3 9 Este 27 Nordeste 0 935.9 -0.5 43
2019-08-19 13:00:00 21.4 12 Nordeste 27 Nordeste 0 936.3 0.1 47
2019-08-19 12:00:00 19.6 14 Nordeste 29 Nordeste 0 936.5 0.1 51
2019-08-19 11:00:00 17.9 10 Nordeste 24 Nordeste 0 936.4 0.4 59
2019-08-19 10:00:00 16 10 Nordeste 19 Nordeste 0 936.2 0.1 63
2019-08-19 09:00:00 14.8 7 Norte 18 Norte 0 936.4 0.6 67
2019-08-19 08:00:00 13.6 7 Norte 17 Norte 0 936 -0.1 69
2019-08-19 07:00:00 13.7 8 Norte 13 Norte 0 936.1 0.2 71
2019-08-19 06:00:00 13.8 6 Norte 14 Nordeste 0 935.8 -0.2 77
2019-08-19 05:00:00 14.2 6 Norte 13 Nordeste 0 936.1 0.2 79
2019-08-19 04:00:00 14.3 6 Nordeste 13 Nordeste 0 935.9 0 77
2019-08-19 03:00:00 14.3 7 Nordeste 13 Norte 0 936 0.5 79
2019-08-19 02:00:00 15.2 7 Nordeste 19 Norte 0 935.9 1.1 72
2019-08-19 01:00:00 16.5 12 Norte 31 Norte 0 935.9 2.1 62
2019-08-19 00:00:00 17.8 15 Norte 36 Norte 0 935.5 2.4 59
2019-08-18 23:00:00 18.9 15 Norte 34 Noroeste 0 934.8 2.4 58
2019-08-18 22:00:00 21.1 14 Norte 32 Norte 0 933.8 1.1 48
2019-08-18 21:00:00 24.2 13 Norte 31 Norte 0 933.1 0.4 40
2019-08-18 20:00:00 26.8 7 Oeste 15 Noroeste 0 932.4 -0.6 36
2019-08-18 19:00:00 26.9 5 Oeste 18 Noroeste 0 932.7 -0.5 41
2019-08-18 18:00:00 26.6 6 Noroeste 25 Norte 0 932.7 0.2 46
2019-08-18 17:00:00 26.6 10 Noroeste 25 Noroeste 0 933 0.4 48
2019-08-18 16:00:00 22.4 14 Noroeste 43 Oeste 0 933.2 0.1 69
2019-08-18 15:00:00 26.8 15 Oeste 31 Oeste 0 932.5 -0.9 45
2019-08-18 14:00:00 26.9 9 Sudoeste 35 Sudoeste 0 932.6 -0.4 38
2019-08-18 13:00:00 24.1 8 Sudoeste 15 Oeste 0 933.1 0.4 43
2019-08-18 12:00:00 21.5 9 Sudoeste 19 Sudoeste 0 933.4 1.1 55
2019-08-18 11:00:00 20.2 6 Oeste 14 Oeste 0 933 1.1 58
2019-08-18 10:00:00 18.6 3 Sudoeste 9 Oeste 0 932.7 0.9 59
2019-08-18 09:00:00 17.3 0 Calma 10 Oeste 0 932.3 0.9 62
2019-08-18 08:00:00 16.4 3 Sur 12 Oeste 0 931.9 0.3 66
2019-08-18 07:00:00 13.9 3 Norte 15 Este 0 931.8 0.2 79
2019-08-18 06:00:00 15.2 3 Nordeste 12 Sudoeste 0 931.4 -0.6 72
2019-08-18 05:00:00 16.6 5 Sudoeste 9 Sudoeste 0 931.6 -0.8 66
2019-08-18 04:00:00 17.7 3 Sur 7 Sur 0 931.6 -0.6 63
2019-08-18 03:00:00 17.9 2 Sudoeste 9 Oeste 0 932 -0.1 61
2019-08-18 02:00:00 20.9 5 Oeste 10 Oeste 0 932.4 0.3 50
2019-08-18 01:00:00 22.6 5 Oeste 19 Noroeste 0 932.2 0.3 43
2019-08-18 00:00:00 23.6 9 Noroeste 17 Oeste 0 932.1 0.5 36
2019-08-17 23:00:00 25.3 6 Noroeste 13 Oeste 0 932.1 0.6 31
2019-08-17 22:00:00 26.8 5 Noroeste 19 Sudoeste 0 931.9 0.2 29
2019-08-17 21:00:00 29.7 7 Oeste 26 Oeste 0 931.6 -0.3 23
2019-08-17 20:00:00 31.9 11 Oeste 31 Oeste 0 931.5 -0.7 20
2019-08-17 19:00:00 33.1 14 Oeste 37 Oeste 0 931.7 -1.2 17
2019-08-17 18:00:00 33.6 16 Oeste 35 Oeste 0 931.9 -2 16
2019-08-17 17:00:00 33.8 12 Sudoeste 24 Sudoeste 0 932.2 -2.3 16
2019-08-17 16:00:00 32.3 8 Noroeste 20 Noroeste 0 932.9 -2.1 20
2019-08-17 15:00:00 30.7 7 Sur 23 Sur 0 933.9 -1.7 23
2019-08-17 14:00:00 29.1 9 Sur 18 Sudoeste 0 934.5 -1.4 22
2019-08-17 13:00:00 27.7 6 Sur 17 Sudeste 0 935 -1 31
2019-08-17 12:00:00 25 4 Este 12 Nordeste 0 935.6 -0.4 41
2019-08-17 11:00:00 23 5 Este 11 Este 0 935.9 0.3 50
2019-08-17 10:00:00 20.3 4 Sur 8 Sur 0 936 0.6 62
2019-08-17 09:00:00 17.8 5 Nordeste 9 Norte 0 936 0.7 69
2019-08-17 08:00:00 14.1 3 Norte 6 Este 0 935.6 0.3 80
2019-08-17 07:00:00 14.1 3 Nordeste 7 Nordeste 0 935.4 -0.2 80
2019-08-17 06:00:00 14.9 2 Sur 4 Sur 0 935.3 -0.4 74
2019-08-17 05:00:00 15.4 2 Sudoeste 7 Sudeste 0 935.3 -0.3 72
2019-08-17 04:00:00 17.4 2 Sur 8 Este 0 935.6 0.1 66
2019-08-17 03:00:00 19.3 3 Norte 10 Noroeste 0 935.7 0 63
2019-08-17 02:00:00 20 3 Norte 17 Noroeste 0 935.6 0.3 59
2019-08-17 01:00:00 21.7 10 Noroeste 26 Noroeste 0 935.5 0.9 51
2019-08-17 00:00:00 23.1 12 Noroeste 24 Noroeste 0 935.7 1.6 41
2019-08-16 23:00:00 24.3 8 Oeste 18 Noroeste 0 935.3 1.7 31
2019-08-16 22:00:00 26.5 10 Noroeste 24 Noroeste 0 934.6 1.1 26
2019-08-16 21:00:00 29.7 9 Noroeste 26 Noroeste 0 934.1 0.1 26
2019-08-16 20:00:00 32.8 9 Oeste 24 Oeste 0 933.6 -0.9 19
2019-08-16 19:00:00 33.8 10 Sudoeste 21 Sudoeste 0 933.5 -1.6 16
2019-08-16 18:00:00 33.5 5 Sudoeste 23 Oeste 0 934 -1.8 16
2019-08-16 17:00:00 32.6 4 Este 18 Sur 0 934.5 -1.8 21
2019-08-16 16:00:00 31.7 8 Sur 22 Sur 0 935.1 -1.6 24
2019-08-16 15:00:00 30.3 5 Sudoeste 22 Sudoeste 0 935.8 -1.5 25
2019-08-16 14:00:00 28.7 7 Oeste 18 Noroeste 0 936.3 -1.1 33
2019-08-16 13:00:00 26.9 6 Sudoeste 15 Sudoeste 0 936.7 -1 39
2019-08-16 12:00:00 24.4 7 Este 16 Nordeste 0 937.3 -0.6 43
2019-08-16 11:00:00 22.3 5 Nordeste 12 Nordeste 0 937.4 -0.3 53
2019-08-16 10:00:00 20.1 6 Nordeste 14 Nordeste 0 937.7 0.4 59
2019-08-16 09:00:00 17.8 8 Norte 14 Norte 0 937.9 0.8 69
2019-08-16 08:00:00 15.1 5 Noroeste 9 Oeste 0 937.7 0 79
2019-08-16 07:00:00 15.9 0 Calma 9 Nordeste 0 937.3 -0.6 74
2019-08-16 06:00:00 15.6 5 Nordeste 16 Norte 0 937.1 -1.1 76
2019-08-16 05:00:00 16.8 9 Norte 19 Norte 0 937.7 -0.7 68
2019-08-16 04:00:00 17.3 7 Norte 15 Norte 0 937.9 -0.6 68
2019-08-16 03:00:00 18 5 Norte 12 Nordeste 0 938.2 0 66
2019-08-16 02:00:00 18.6 5 Norte 19 Nordeste 0 938.4 0.5 65
2019-08-16 01:00:00 20.5 11 Nordeste 23 Nordeste 0 938.5 1.8 57
2019-08-16 00:00:00 22 11 Nordeste 24 Nordeste 0 938.2 2 52
2019-08-15 23:00:00 24.9 12 Norte 27 Norte 0 937.9 2 43
2019-08-15 22:00:00 25.3 6 Norte 20 Nordeste 0 936.7 0.5 47
2019-08-15 21:00:00 28.6 4 Norte 13 Nordeste 0 936.2 -0.3 33
2019-08-15 20:00:00 30.6 5 Sudeste 18 Sudeste 0 935.9 -1.3 23
2019-08-15 19:00:00 31.7 8 Sur 22 Sudeste 0 936.2 -1.6 23
2019-08-15 18:00:00 31.9 8 Sur 22 Sur 0 936.5 -1.8 22
2019-08-15 17:00:00 30.5 8 Sudoeste 26 Sudoeste 0 937.2 -1.6 26
2019-08-15 16:00:00 28.9 6 Este 19 Sudeste 0 937.8 -1.6 30
2019-08-15 15:00:00 28 6 Este 18 Sudeste 0 938.3 -1.5 30
2019-08-15 14:00:00 27.3 5 Sudeste 15 Nordeste 0 938.8 -1.3 30
2019-08-15 13:00:00 26 4 Sudeste 18 Este 0 939.4 -0.6 35
2019-08-15 12:00:00 23.7 4 Este 14 Este 0 939.8 -0.2 46
2019-08-15 11:00:00 21.7 4 Este 13 Nordeste 0 940.1 0.3 55
2019-08-15 10:00:00 19.7 7 Norte 21 Nordeste 0 940 0.5 56
2019-08-15 09:00:00 17.8 7 Nordeste 12 Nordeste 0 940 1 68
2019-08-15 08:00:00 15.3 5 Norte 10 Nordeste 0 939.8 1 80
2019-08-15 07:00:00 14.5 6 Norte 9 Norte 0 939.5 0.7 83
2019-08-15 06:00:00 15.8 4 Norte 15 Norte 0 939 0.4 79
2019-08-15 05:00:00 16.1 8 Norte 15 Norte 0 938.8 0.2 79
2019-08-15 04:00:00 17.5 6 Norte 21 Nordeste 0 938.8 0.2 70
2019-08-15 03:00:00 17.5 10 Nordeste 15 Nordeste 0 938.6 0.3 77
2019-08-15 02:00:00 19.2 8 Norte 20 Nordeste 0 938.6 0.7 69
2019-08-15 01:00:00 20.4 6 Este 22 Norte 0 938.6 1.4 64
2019-08-15 00:00:00 22.1 15 Norte 37 Noroeste 0 938.3 1.7 56
2019-08-14 23:00:00 23.3 17 Noroeste 39 Noroeste 0 937.9 1.6 52
2019-08-14 22:00:00 25.1 17 Norte 35 Noroeste 0 937.2 0.8 48
2019-08-14 21:00:00 27.9 15 Norte 29 Norte 0 936.6 0.1 37
2019-08-14 20:00:00 29.7 12 Norte 24 Norte 0 936.3 -0.6 31
2019-08-14 19:00:00 30.3 10 Nordeste 21 Norte 0 936.4 -1.1 25
2019-08-14 18:00:00 31.3 8 Sur 19 Sur 0 936.5 -1.6 23
2019-08-14 17:00:00 31 6 Sudoeste 28 Sur 0 936.9 -1.8 23
2019-08-14 16:00:00 29.8 9 Sur 20 Sur 0 937.5 -1.6 25
2019-08-14 15:00:00 27.9 5 Sudeste 15 Sudoeste 0 938.1 -1.1 27
2019-08-14 14:00:00 26.8 7 Oeste 18 Sudoeste 0 938.7 -0.8 28
2019-08-14 13:00:00 25.2 6 Sudoeste 25 Sudoeste 0 939.1 -0.5 31
2019-08-14 12:00:00 23.2 5 Sur 12 Sur 0 939.2 -0.3 36
2019-08-14 11:00:00 20.6 4 Nordeste 13 Nordeste 0 939.5 0.3 48
2019-08-14 10:00:00 17.8 5 Nordeste 13 Nordeste 0 939.6 0.8 57
2019-08-14 09:00:00 15 4 Nordeste 12 Norte 0 939.5 0.6 68
2019-08-14 08:00:00 12.9 4 Nordeste 18 Norte 0 939.2 0.5 72
2019-08-14 07:00:00 12.7 5 Norte 14 Noroeste 0 938.8 0 74
2019-08-14 06:00:00 13.6 5 Noroeste 11 Norte 0 938.9 0 68
2019-08-14 05:00:00 14 6 Norte 9 Norte 0 938.7 -0.4 69
2019-08-14 04:00:00 14.6 5 Norte 16 Nordeste 0 938.8 0.1 63
2019-08-14 03:00:00 14.9 6 Norte 19 Nordeste 0 938.9 0.5 60
2019-08-14 02:00:00 15.4 7 Norte 13 Norte 0 939.1 0.9 56
2019-08-14 01:00:00 16.6 0 Calma 12 Norte 0 938.7 1.1 50
2019-08-14 00:00:00 19.8 4 Sudoeste 9 Oeste 0 938.4 1.1 31
2019-08-13 23:00:00 18.3 3 Norte 4 Norte 0 938.2 0.9 37
2019-08-13 22:00:00 21.4 0 Calma 10 Este 0 937.6 0.1 32
2019-08-13 21:00:00 24.3 5 Este 13 Sudeste 0 937.3 -0.4 25
2019-08-13 20:00:00 25.9 5 Este 14 Sudeste 0 937.3 -1 21
2019-08-13 19:00:00 26.8 6 Sur 17 Oeste 0 937.5 -1.4 20
2019-08-13 18:00:00 26.1 5 Sudeste 19 Sur 0 937.7 -1.6 20
2019-08-13 17:00:00 25.2 7 Sudoeste 22 Sudoeste 0 938.3 -1.5 22
2019-08-13 16:00:00 24.6 6 Sudeste 21 Sudeste 0 938.9 -1.3 24
2019-08-13 15:00:00 22.9 4 Sudeste 15 Sudeste 0 939.3 -1.2 29
2019-08-13 14:00:00 21.9 5 Nordeste 18 Norte 0 939.8 -1 33
2019-08-13 13:00:00 20.3 5 Nordeste 19 Nordeste 0 940.2 -0.7 38
2019-08-13 12:00:00 18.5 8 Este 21 Nordeste 0 940.5 -0.4 42
2019-08-13 11:00:00 16.7 9 Nordeste 19 Nordeste 0 940.8 0 52
2019-08-13 10:00:00 14.3 10 Nordeste 22 Nordeste 0 940.9 0.5 64
2019-08-13 09:00:00 13 10 Norte 19 Norte 0 940.9 0.7 69
2019-08-13 08:00:00 11 9 Norte 18 Norte 0 940.8 0.4 77
2019-08-13 07:00:00 10.6 6 Norte 12 Norte 0 940.4 -0.1 78
2019-08-13 06:00:00 10.7 5 Norte 10 Nordeste 0 940.2 -0.4 77
2019-08-13 05:00:00 11.5 2 Nordeste 10 Este 0 940.4 -0.4 74
2019-08-13 04:00:00 12 5 Nordeste 11 Nordeste 0 940.5 -0.2 71
2019-08-13 03:00:00 13 7 Nordeste 24 Este 0 940.6 -0.3 68
2019-08-13 02:00:00 13.8 8 Este 25 Este 0 940.8 0.4 65
2019-08-13 01:00:00 14.6 10 Nordeste 32 Nordeste 0 940.7 1.2 60
2019-08-13 00:00:00 15.9 10 Nordeste 30 Nordeste 0 940.9 2.5 53
2019-08-12 23:00:00 16.9 10 Nordeste 27 Este 0 940.4 2.6 51
2019-08-12 22:00:00 17.9 12 Norte 27 Norte 0 939.5 1 42
2019-08-12 21:00:00 20.6 5 Norte 13 Norte 0 938.4 -0.3 32
2019-08-12 20:00:00 21.2 6 Este 11 Nordeste 0 937.8 -1 28
2019-08-12 19:00:00 21.9 7 Norte 21 Nordeste 0 938.5 -0.6 25
2019-08-12 18:00:00 22.6 9 Norte 24 Nordeste 0 938.7 -1 22
2019-08-12 17:00:00 22.7 10 Norte 25 Este 0 938.8 -1.2 23
2019-08-12 16:00:00 22.1 13 Nordeste 29 Nordeste 0 939.1 -1.4 27
2019-08-12 15:00:00 21.2 11 Nordeste 27 Nordeste 0 939.7 -0.8 29
2019-08-12 14:00:00 20.6 11 Nordeste 26 Nordeste 0 940 -0.6 30
2019-08-12 13:00:00 18.7 10 Nordeste 30 Este 0 940.5 0.2 34
2019-08-12 12:00:00 18.3 11 Nordeste 27 Nordeste 0 940.5 0.6 35
2019-08-12 11:00:00 16.3 13 Norte 30 Norte 0 940.6 1.1 47
2019-08-12 10:00:00 14.7 13 Norte 30 Noroeste 0 940.3 1.4 56
2019-08-12 09:00:00 12.1 13 Noroeste 25 Noroeste 0 939.9 1.4 66
2019-08-12 08:00:00 10.4 9 Norte 26 Noroeste 0 939.5 0.7 74
2019-08-12 07:00:00 9.9 12 Noroeste 26 Noroeste 0 938.9 0 77
2019-08-12 06:00:00 10.5 11 Noroeste 26 Noroeste 0 938.5 -0.6 74
2019-08-12 05:00:00 11.2 11 Noroeste 26 Noroeste 0 938.8 -0.6 71
2019-08-12 04:00:00 11.8 13 Noroeste 27 Noroeste 0 938.9 -0.3 69
2019-08-12 03:00:00 12.1 10 Noroeste 22 Noroeste 0 939.1 0.1 68
2019-08-12 02:00:00 12.5 8 Noroeste 19 Noroeste 0 939.4 0.9 66
2019-08-12 01:00:00 13.2 6 Noroeste 21 Noroeste 0 939.2 1.5 63
2019-08-12 00:00:00 14 9 Noroeste 28 Noroeste 0 939 2.1 60
2019-08-11 23:00:00 15.2 15 Noroeste 36 Noroeste 0 938.5 2.4 55
2019-08-11 22:00:00 16 10 Norte 31 Noroeste 0 937.7 2.4 51
2019-08-11 21:00:00 17.7 18 Noroeste 48 Noroeste 0 936.9 2.1 45
2019-08-11 20:00:00 19.1 23 Noroeste 45 Noroeste 0 936.1 1.3 42
2019-08-11 19:00:00 23.1 18 Norte 36 Norte 0 935.3 0 25
2019-08-11 18:00:00 24.4 14 Norte 33 Norte 0 934.8 -0.8 25
2019-08-11 17:00:00 24.5 13 Sudoeste 35 Sudoeste 0 934.8 -1.3 18
2019-08-11 16:00:00 24.1 11 Sur 31 Sur 0 935.3 -1.3 28
2019-08-11 15:00:00 22.9 13 Sur 30 Sudoeste 0 935.6 -1.2 33
2019-08-11 14:00:00 21.5 7 Sudoeste 19 Oeste 0 936.1 -0.8 42
2019-08-11 13:00:00 19.6 5 Oeste 17 Sudoeste 0 936.6 -0.1 53
2019-08-11 12:00:00 18.2 7 Sudoeste 16 Sur 0 936.8 0.4 61
2019-08-11 11:00:00 16.8 6 Sudoeste 14 Sudoeste 0 936.9 1 68
2019-08-11 10:00:00 15.3 2 Sudeste 8 Nordeste 0.2 936.7 1.8 76
2019-08-11 09:00:00 14.1 6 Noroeste 12 Noroeste 0 936.4 0.9 81
2019-08-11 08:00:00 13.7 5 Oeste 12 Oeste 0 935.9 0.5 83
2019-08-11 07:00:00 13.4 4 Nordeste 13 Nordeste 0 934.9 -1.7 83
2019-08-11 06:00:00 14.3 2 Nordeste 14 Este 0 935.5 -1.9 85
2019-08-11 05:00:00 14.5 5 Este 11 Este 0 935.4 -0.7 85
2019-08-11 04:00:00 15.1 4 Sudeste 13 Norte 0.6 936.6 0.1 83
2019-08-11 03:00:00 15.6 6 Norte 18 Nordeste 0.8 937.4 1.2 81
2019-08-11 02:00:00 17.6 10 Norte 24 Norte 0 936.1 0 64
2019-08-11 01:00:00 18.4 9 Norte 32 Norte 0 936.5 0.4 53
2019-08-11 00:00:00 19 14 Norte 29 Noroeste 0 936.2 0.2 48
2019-08-10 23:00:00 19.7 13 Noroeste 23 Noroeste 0 936.1 0.7 45
2019-08-10 22:00:00 20.8 8 Oeste 23 Oeste 0 936.1 0.7 41
2019-08-10 21:00:00 23 11 Oeste 28 Noroeste 0 936 0.3 32
2019-08-10 20:00:00 25 9 Oeste 22 Oeste 0 935.4 -0.8 26
2019-08-10 19:00:00 26.6 8 Sudoeste 24 Sur 0 935.4 -1.5 18
2019-08-10 18:00:00 27.1 9 Sudoeste 29 Sudeste 0 935.7 -1.8 21
2019-08-10 17:00:00 26.7 10 Sur 29 Sur 0 936.2 -1.8 20
2019-08-10 16:00:00 26.1 10 Sur 35 Sudeste 0 936.9 -1.5 20
2019-08-10 15:00:00 25 9 Sur 29 Sudoeste 0 937.5 -1.4 25
2019-08-10 14:00:00 23.1 9 Sudoeste 22 Sudoeste 0 938 -0.9 26
2019-08-10 13:00:00 21.8 7 Sur 17 Este 0 938.4 -0.5 34
2019-08-10 12:00:00 20.1 7 Este 21 Este 0 938.9 0.1 45
2019-08-10 11:00:00 18.9 5 Nordeste 16 Nordeste 0 938.9 0.6 51
2019-08-10 10:00:00 17.3 8 Nordeste 18 Nordeste 0 938.9 1.3 54
2019-08-10 09:00:00 16.3 9 Norte 18 Norte 0 938.8 1.3 59
2019-08-10 08:00:00 15.3 2 Sur 7 Oeste 0 938.3 1.2 73
2019-08-10 07:00:00 16 3 Sudoeste 6 Sudoeste 0 937.6 0.4 68
2019-08-10 06:00:00 16.2 3 Oeste 12 Sudoeste 0 937.5 0.2 67
2019-08-10 05:00:00 16.5 3 Oeste 8 Oeste 0 937.1 -0.1 65
2019-08-10 04:00:00 16.8 3 Oeste 9 Oeste 0 937.2 0.2 63
2019-08-10 03:00:00 16.7 2 Oeste 10 Noroeste 0 937.3 0.6 63
2019-08-10 02:00:00 17 6 Oeste 20 Sudoeste 0 937.2 0.6 62
2019-08-10 01:00:00 17.4 9 Oeste 21 Oeste 0 937 1 60
2019-08-10 00:00:00 18.1 7 Oeste 18 Oeste 0 936.7 1.4 55
2019-08-09 23:00:00 18.9 6 Oeste 28 Noroeste 0 936.6 1.9 53
2019-08-09 22:00:00 20.2 10 Oeste 24 Oeste 0 936 1.6 48
2019-08-09 21:00:00 21.7 10 Oeste 31 Noroeste 0 935.3 1 42
2019-08-09 20:00:00 23.6 10 Oeste 30 Sudoeste 0 934.7 0.6 36
2019-08-09 19:00:00 24 14 Sudoeste 36 Sudoeste 0 934.4 0.4 34
2019-08-09 18:00:00 24.7 12 Oeste 30 Oeste 0 934.3 0.5 37
2019-08-09 17:00:00 24.6 14 Oeste 41 Sudoeste 0 934.1 0.1 37
2019-08-09 16:00:00 25.2 18 Sudoeste 44 Sudoeste 0 934 0.2 33
2019-08-09 15:00:00 24.6 15 Sudoeste 44 Sudoeste 0 933.8 -0.1 36
2019-08-09 14:00:00 23.2 18 Sudoeste 41 Oeste 0 934 0.6 41
2019-08-09 13:00:00 21.9 16 Sudoeste 36 Oeste 0 933.8 1.2 48
2019-08-09 12:00:00 20.9 16 Oeste 38 Sudoeste 0 933.9 1.8 58
2019-08-09 11:00:00 19.7 15 Sudoeste 37 Sudoeste 0 933.4 1.8 66
2019-08-09 10:00:00 17.4 10 Sudoeste 27 Sudoeste 0 932.6 2.2 81
2019-08-09 09:00:00 17.1 12 Sudoeste 32 Oeste 0.4 932.1 1.8 86
2019-08-09 08:00:00 18 15 Oeste 45 Sudoeste 0.8 931.6 0.9 87
2019-08-09 07:00:00 21 18 Sudoeste 41 Sudoeste 0 930.4 -0.4 73
2019-08-09 06:00:00 21.1 14 Sudoeste 36 Sudoeste 0 930.3 -0.8 71
2019-08-09 05:00:00 21.1 14 Sudoeste 36 Sudoeste 0 930.7 -0.5 71
2019-08-09 04:00:00 21.5 15 Sudoeste 30 Sudoeste 0 930.8 -0.5 67
2019-08-09 03:00:00 20.6 7 Sudoeste 16 Sudoeste 0 931.1 -0.6 70
2019-08-09 02:00:00 21 5 Sur 10 Sur 0 931.2 -0.3 67
2019-08-09 01:00:00 22.2 5 Sur 15 Sudoeste 0 931.3 0.4 61
2019-08-09 00:00:00 23.4 8 Sudoeste 21 Sudoeste 0 931.7 1.1 56
2019-08-08 23:00:00 23.8 6 Sudoeste 21 Sudoeste 0 931.5 1.4 53
2019-08-08 22:00:00 24.7 12 Sudoeste 28 Sudoeste 0 930.9 0.4 49
2019-08-08 21:00:00 26.2 12 Sudoeste 40 Oeste 0 930.6 0.1 47
2019-08-08 20:00:00 27.4 15 Sudoeste 37 Sudoeste 0 930.1 -0.6 46
2019-08-08 19:00:00 28.4 15 Sudoeste 39 Sur 0 930.5 -0.7 44
2019-08-08 18:00:00 28.3 17 Sudoeste 36 Oeste 0 930.5 -1.4 43
2019-08-08 17:00:00 27.3 18 Sudoeste 42 Sudoeste 0 930.7 -1.7 47
2019-08-08 16:00:00 27.9 13 Sur 30 Sudoeste 0 931.2 -1.4 50
2019-08-08 15:00:00 26.6 14 Sudoeste 35 Sudoeste 0 931.9 -1 53
2019-08-08 14:00:00 24.8 9 Oeste 27 Sudoeste 0 932.4 -0.5 64
2019-08-08 13:00:00 23.5 13 Sudoeste 27 Sudoeste 0 932.6 -0.5 68
2019-08-08 12:00:00 21 8 Sur 18 Sur 0 932.9 0.1 80
2019-08-08 11:00:00 19.2 7 Sur 18 Sur 0.2 932.9 0.3 85
2019-08-08 10:00:00 18.5 7 Sur 25 Sudoeste 0 933.1 0.7 87
2019-08-08 09:00:00 18.8 7 Sur 24 Sudoeste 0 932.8 0.6 82
2019-08-08 08:00:00 18.9 9 Sur 22 Sudoeste 0 932.6 -0.2 80
2019-08-08 07:00:00 19 8 Sudoeste 18 Sudoeste 0 932.4 -0.6 83
2019-08-08 06:00:00 19 5 Sur 11 Sudoeste 0 932.2 -0.9 79
2019-08-08 05:00:00 18.4 3 Sudeste 7 Nordeste 0 932.8 -0.5 88
2019-08-08 04:00:00 18.7 0 Calma 16 Sudoeste 0 933 -0.1 84
2019-08-08 03:00:00 18.9 6 Sur 13 Sudoeste 0 933.1 0.1 86
2019-08-08 02:00:00 18.8 6 Sur 16 Sudoeste 0 933.3 0.2 86
2019-08-08 01:00:00 19 6 Oeste 17 Sudoeste 0 933.1 0.4 79
2019-08-08 00:00:00 18.8 5 Sudoeste 9 Sudoeste 0 933 0.2 83
2019-08-07 23:00:00 19 4 Sudoeste 10 Oeste 0 933.1 0.5 82
2019-08-07 22:00:00 18.8 5 Noroeste 14 Oeste 0 932.7 -0.2 84
2019-08-07 21:00:00 19 8 Noroeste 18 Noroeste 0 932.8 0.3 84
2019-08-07 20:00:00 19.1 6 Sudoeste 18 Oeste 1.4 932.6 0.1 85
2019-08-07 19:00:00 19.7 9 Sudoeste 34 Sudoeste 0.6 932.9 0.1 80
2019-08-07 18:00:00 23.2 9 Oeste 19 Oeste 0 932.5 -0.3 51
2019-08-07 17:00:00 21.4 9 Oeste 24 Oeste 0 932.5 0 62
2019-08-07 16:00:00 23.4 7 Oeste 29 Sudoeste 0 932.8 0.2 49
2019-08-07 15:00:00 23.9 13 Sudoeste 44 Oeste 0 932.8 0 44
2019-08-07 14:00:00 25.4 13 Sudoeste 27 Sur 0 932.5 -0.1 36
2019-08-07 13:00:00 24.7 8 Sudoeste 24 Sudoeste 0 932.6 0.3 38
2019-08-07 12:00:00 23.8 6 Sur 16 Sur 0 932.8 0.8 41
2019-08-07 11:00:00 21.9 5 Sur 12 Sur 0 932.6 0.9 55
2019-08-07 10:00:00 20.9 3 Norte 9 Noroeste 0 932.3 0.9 55
2019-08-07 09:00:00 19.7 0 Calma 4 Noroeste 0 932 0.9 62
2019-08-07 08:00:00 17.3 0 Calma 3 Este 0 931.7 0.7 72
2019-08-07 07:00:00 17.6 2 Norte 5 Nordeste 0 931.4 0.1 70
2019-08-07 06:00:00 18.5 0 Calma 5 Oeste 0 931.1 -0.1 66
2019-08-07 05:00:00 18.4 2 Sur 11 Oeste 0 931 -0.6 71
2019-08-07 04:00:00 19.4 7 Oeste 15 Oeste 0 931.3 -0.8 67
2019-08-07 03:00:00 19.8 2 Noroeste 5 Nordeste 0 931.2 -0.6 64
2019-08-07 02:00:00 19.9 3 Nordeste 6 Este 0 931.6 -0.4 67
2019-08-07 01:00:00 20.3 4 Nordeste 15 Norte 0 932.1 1 62
2019-08-07 00:00:00 20.6 10 Nordeste 23 Noroeste 0 931.8 0.9 62
2019-08-06 23:00:00 21.8 9 Norte 18 Oeste 0 932 1.5 55
2019-08-06 22:00:00 22.9 9 Norte 30 Norte 0 931.1 0.8 51
2019-08-06 21:00:00 23.8 17 Norte 35 Noroeste 0 930.9 0.6 48
2019-08-06 20:00:00 26.6 9 Oeste 34 Oeste 0 930.5 -0.2 29
2019-08-06 19:00:00 28.4 13 Oeste 33 Oeste 0 930.3 -0.8 28
2019-08-06 18:00:00 30.4 10 Oeste 24 Sudoeste 0 930.3 -1.4 26
2019-08-06 17:00:00 30.9 10 Sudoeste 31 Oeste 0 930.7 -1.7 20
2019-08-06 16:00:00 30.6 8 Oeste 18 Sudoeste 0 931.1 -1.8 26
2019-08-06 15:00:00 29 10 Sur 24 Sudoeste 0 931.7 -1.7 30
2019-08-06 14:00:00 28.1 6 Sudoeste 17 Sudoeste 0 932.4 -1.2 34
2019-08-06 13:00:00 26.4 5 Oeste 17 Sur 0 932.9 -0.6 38
2019-08-06 12:00:00 24.5 5 Sur 13 Sur 0 933.4 0.2 44
2019-08-06 11:00:00 22.2 6 Nordeste 15 Nordeste 0 933.6 0.5 48
2019-08-06 10:00:00 21.8 4 Este 9 Nordeste 0 933.5 0.4 48
2019-08-06 09:00:00 18.2 2 Nordeste 6 Nordeste 0 933.2 0 69
2019-08-06 08:00:00 17 2 Este 4 Este 0 933.1 -0.4 74
2019-08-06 07:00:00 16.4 2 Noroeste 3 Noroeste 0 933.1 -0.3 76
2019-08-06 06:00:00 16.9 0 Calma 5 Este 0 933.2 -0.1 74
2019-08-06 05:00:00 18.6 0 Calma 8 Nordeste 0 933.5 0.1 66
2019-08-06 04:00:00 18.7 6 Norte 13 Este 0 933.4 0.3 68
2019-08-06 03:00:00 19.6 3 Nordeste 13 Nordeste 0 933.3 0.3 65
2019-08-06 02:00:00 20.7 7 Norte 21 Norte 0 933.4 0.6 60
2019-08-06 01:00:00 23.1 12 Norte 26 Norte 0 933.1 1.1 52
2019-08-06 00:00:00 24.2 9 Noroeste 19 Noroeste 0 933 1.6 45
2019-08-05 23:00:00 26.2 10 Noroeste 20 Noroeste 0 932.8 1.7 35
2019-08-05 22:00:00 28 5 Oeste 17 Oeste 0 932 0.7 29
2019-08-05 21:00:00 30.4 6 Sudoeste 21 Noroeste 0 931.4 -0.2 24
2019-08-05 20:00:00 32.5 7 Oeste 22 Oeste 0 931.1 -1 22
2019-08-05 19:00:00 32.8 7 Oeste 18 Sudoeste 0 931.3 -1.4 18
2019-08-05 18:00:00 32.7 9 Sudoeste 26 Sur 0 931.6 -1.7 21
2019-08-05 17:00:00 32.1 5 Sur 19 Sudoeste 0 932.1 -1.6 22
2019-08-05 16:00:00 31.1 9 Sur 23 Sur 0 932.7 -1.6 25
2019-08-05 15:00:00 29.5 8 Sur 21 Sudeste 0 933.3 -1.6 32
2019-08-05 14:00:00 28.4 5 Noroeste 17 Sudoeste 0 933.7 -1.5 33
2019-08-05 13:00:00 26.7 4 Sudeste 17 Nordeste 0 934.3 -1.1 39
2019-08-05 12:00:00 24.4 8 Nordeste 19 Norte 0 934.9 -0.5 48
2019-08-05 11:00:00 22.5 7 Nordeste 18 Nordeste 0 935.2 -0.2 55
2019-08-05 10:00:00 20.9 8 Norte 17 Nordeste 0 935.4 0 61
2019-08-05 09:00:00 18.6 7 Norte 13 Nordeste 0 935.4 0.2 71
2019-08-05 08:00:00 16.8 3 Nordeste 9 Norte 0 935.4 0.3 76
2019-08-05 07:00:00 16.3 6 Norte 9 Norte 0 935.4 0.2 79
2019-08-05 06:00:00 16.4 6 Norte 10 Norte 0 935.2 0 79
2019-08-05 05:00:00 16.9 4 Nordeste 9 Nordeste 0 935.1 0.2 78
2019-08-05 04:00:00 17.9 4 Nordeste 8 Nordeste 0 935.2 0.5 72
2019-08-05 03:00:00 18.7 5 Nordeste 18 Nordeste 0 935.2 0.9 67
2019-08-05 02:00:00 20.7 6 Norte 23 Norte 0 934.9 0.9 57
2019-08-05 01:00:00 21.2 8 Nordeste 26 Noroeste 0 934.7 1.2 53
2019-08-05 00:00:00 23.2 10 Noroeste 27 Noroeste 0 934.3 1.4 45
2019-08-04 23:00:00 24.7 13 Norte 27 Norte 0 934 1.6 40
2019-08-04 22:00:00 26.7 7 Noroeste 18 Oeste 0 933.5 1.4 30
2019-08-04 21:00:00 29.5 8 Oeste 31 Oeste 0 932.9 0.7 23
2019-08-04 20:00:00 31.6 10 Oeste 27 Oeste 0 932.4 0.1 20
2019-08-04 19:00:00 32.3 11 Oeste 28 Sudoeste 0 932.1 -0.6 18
2019-08-04 18:00:00 33.2 12 Oeste 31 Sudoeste 0 932.2 -0.6 14
2019-08-04 17:00:00 33 13 Oeste 32 Oeste 0 932.3 -1.2 17
2019-08-04 16:00:00 32.4 15 Sudoeste 32 Sudoeste 0 932.7 -1.3 19
2019-08-04 15:00:00 31.5 14 Sur 41 Sur 0 932.8 -1.5 25
2019-08-04 14:00:00 29.5 7 Sudoeste 22 Sudoeste 0 933.5 -0.9 32
2019-08-04 13:00:00 28.1 8 Oeste 19 Sudoeste 0 934 -0.6 37
2019-08-04 12:00:00 25.7 5 Este 13 Este 0 934.3 -0.3 44
2019-08-04 11:00:00 23.8 5 Nordeste 18 Nordeste 0 934.4 0.2 51
2019-08-04 10:00:00 21.7 11 Nordeste 17 Nordeste 0 934.6 0.7 62
2019-08-04 09:00:00 20 5 Norte 10 Norte 0 934.6 0.8 67
2019-08-04 08:00:00 16.8 2 Nordeste 6 Norte 0 934.2 0.4 79
2019-08-04 07:00:00 17.6 3 Norte 6 Noroeste 0 933.9 0.2 76
2019-08-04 06:00:00 17.7 3 Noroeste 7 Norte 0 933.8 0 75
2019-08-04 05:00:00 18.7 4 Noroeste 8 Oeste 0 933.8 0.3 71
2019-08-04 04:00:00 19 4 Nordeste 8 Nordeste 0 933.7 0.3 69
2019-08-04 03:00:00 19.5 3 Norte 18 Norte 0 933.8 0.8 66
2019-08-04 02:00:00 21.8 9 Norte 22 Norte 0 933.5 0.6 58
2019-08-04 01:00:00 22.7 10 Norte 24 Norte 0 933.4 1.4 48
2019-08-04 00:00:00 24.1 13 Noroeste 26 Noroeste 0 933 1.7 40
2019-08-03 23:00:00 25.2 11 Norte 30 Noroeste 0 932.9 1.9 33
2019-08-03 22:00:00 27.7 15 Noroeste 26 Norte 0 932 1 28
2019-08-03 21:00:00 30.9 8 Oeste 27 Oeste 0 931.3 0 20
2019-08-03 20:00:00 33 10 Oeste 27 Oeste 0 931 -0.7 20
2019-08-03 19:00:00 34 11 Oeste 23 Oeste 0 931 -1.2 18
2019-08-03 18:00:00 33.8 5 Noroeste 24 Sur 0 931.3 -1.5 18
2019-08-03 17:00:00 33.7 6 Sur 24 Sur 0 931.7 -1.5 18
2019-08-03 16:00:00 33.5 8 Sur 21 Sudeste 0 932.2 -1.3 18
2019-08-03 15:00:00 32.4 8 Oeste 19 Sudoeste 0 932.8 -0.9 20
2019-08-03 14:00:00 31.4 4 Sudoeste 14 Nordeste 0 933.2 -0.8 22
2019-08-03 13:00:00 29.5 6 Norte 16 Nordeste 0 933.5 -0.5 28
2019-08-03 12:00:00 27 4 Norte 13 Nordeste 0 933.7 -0.6 32
2019-08-03 11:00:00 24.5 5 Norte 13 Nordeste 0 934 -0.1 35
2019-08-03 10:00:00 21.8 8 Norte 15 Nordeste 0 934 -0.1 45
2019-08-03 09:00:00 19.1 7 Norte 15 Norte 0 934.3 0.4 59
2019-08-03 08:00:00 17.4 6 Norte 23 Nordeste 0 934.1 0.1 66
2019-08-03 07:00:00 16.9 7 Norte 19 Norte 0 934.1 -0.2 69
2019-08-03 06:00:00 18 8 Norte 17 Norte 0 933.9 -0.5 64
2019-08-03 05:00:00 18 5 Norte 12 Norte 0 934 -0.6 64
2019-08-03 04:00:00 19.2 5 Norte 13 Norte 0 934.3 -0.3 57
2019-08-03 03:00:00 20.5 8 Norte 20 Norte 0 934.4 0.5 51
2019-08-03 02:00:00 21.4 8 Norte 18 Nordeste 0 934.6 0.8 49
2019-08-03 01:00:00 23.1 8 Nordeste 21 Norte 0 934.6 1.3 45
2019-08-03 00:00:00 22.1 5 Norte 8 Norte 0 933.9 0.6 32
2019-08-02 23:00:00 23.1 4 Norte 7 Norte 0 933.8 0.5 32
2019-08-02 22:00:00 25.3 3 Norte 9 Este 0 933.3 -0.1 37
2019-08-02 21:00:00 29.2 5 Este 13 Este 0 933.3 -0.5 24
2019-08-02 20:00:00 31 7 Este 15 Sudeste 0 933.3 -0.9 18
2019-08-02 19:00:00 31.8 4 Sudeste 18 Oeste 0 933.4 -1.3 18
2019-08-02 18:00:00 32.4 7 Noroeste 18 Sur 0 933.8 -1.2 16
2019-08-02 17:00:00 31.7 6 Oeste 21 Sur 0 934.2 -1.3 17
2019-08-02 16:00:00 30.8 6 Oeste 17 Sudeste 0 934.7 -1.2 20
2019-08-02 15:00:00 29.5 4 Sur 15 Este 0 935 -1.1 27
2019-08-02 14:00:00 27.2 6 Este 17 Noroeste 0 935.5 -0.7 34
2019-08-02 13:00:00 24.8 4 Este 16 Nordeste 0 935.9 -0.4 42
2019-08-02 12:00:00 22.7 6 Norte 20 Nordeste 0 936.1 0 46
2019-08-02 11:00:00 20.8 8 Nordeste 20 Nordeste 0 936.2 0.3 52
2019-08-02 10:00:00 18.1 8 Nordeste 17 Este 0 936.3 0.9 65
2019-08-02 09:00:00 17 7 Norte 19 Nordeste 0 936.1 0.9 70
2019-08-02 08:00:00 14.9 3 Nordeste 12 Nordeste 0 935.9 0.2 78
2019-08-02 07:00:00 14.8 6 Norte 18 Norte 0 935.4 -0.2 77
2019-08-02 06:00:00 14.8 8 Norte 17 Norte 0 935.2 -0.4 78
2019-08-02 05:00:00 15.1 4 Nordeste 10 Nordeste 0 935.7 0.2 76
2019-08-02 04:00:00 15.7 6 Nordeste 14 Este 0 935.6 0.3 74
2019-08-02 03:00:00 16.5 7 Nordeste 20 Nordeste 0 935.6 0.5 72
2019-08-02 02:00:00 17 9 Nordeste 21 Nordeste 0 935.5 1.7 71
2019-08-02 01:00:00 18.3 10 Nordeste 23 Nordeste 0 935.3 2.7 68
2019-08-02 00:00:00 19.7 14 Nordeste 30 Este 0 935.1 3.1 64
2019-08-01 23:00:00 24 17 Norte 33 Norte 0 933.8 2.4 42
2019-08-01 22:00:00 26.5 8 Oeste 18 Oeste 0 932.6 1.4 23
2019-08-01 21:00:00 28.8 6 Oeste 19 Oeste 0 932 0.7 19
2019-08-01 20:00:00 31.1 4 Sudoeste 15 Sur 0 931.4 -0.1 17
2019-08-01 19:00:00 30.9 10 Sur 24 Sur 0 931.2 -0.9 16
2019-08-01 18:00:00 30.1 8 Sudeste 21 Sur 0 931.3 -1 21
2019-08-01 17:00:00 30.2 6 Norte 18 Oeste 0 931.5 -1.1 22
2019-08-01 16:00:00 29.5 5 Noroeste 19 Sudeste 0 932.1 -0.6 22
2019-08-01 15:00:00 28.5 8 Sudoeste 23 Sudoeste 0 932.3 -0.7 24
2019-08-01 14:00:00 27 5 Sudeste 18 Este 0 932.6 -0.4 35
2019-08-01 13:00:00 24.7 5 Noroeste 16 Norte 0 932.7 -0.1 44
2019-08-01 12:00:00 22.8 5 Norte 15 Norte 0 933 0.4 50
2019-08-01 11:00:00 20.8 6 Norte 16 Nordeste 0 933 0.5 55
2019-08-01 10:00:00 19.3 7 Norte 14 Nordeste 0 932.8 0.6 58
2019-08-01 09:00:00 17.2 4 Nordeste 9 Nordeste 0 932.6 0.4 66
2019-08-01 08:00:00 14 2 Norte 6 Norte 0 932.5 0.4 76
2019-08-01 07:00:00 13.3 3 Norte 9 Norte 0 932.2 -0.4 78
2019-08-01 06:00:00 13.7 5 Norte 10 Norte 0 932.2 -0.6 78
2019-08-01 05:00:00 15.3 4 Norte 12 Norte 0 932.1 -0.8 72
2019-08-01 04:00:00 16.5 6 Norte 12 Norte 0 932.6 -0.4 68
2019-08-01 03:00:00 18.2 6 Norte 14 Nordeste 0 932.8 -0.2 60
2019-08-01 02:00:00 18.6 7 Norte 21 Nordeste 0 932.9 -0.1 60
2019-08-01 01:00:00 19.7 9 Nordeste 24 Este 0 933 0.6 56
2019-08-01 00:00:00 20.4 8 Nordeste 27 Este 0 933 0.7 52
2019-07-31 23:00:00 20.4 5 Nordeste 12 Nordeste 0 933 0.9 44
2019-07-31 22:00:00 22.6 6 Nordeste 18 Norte 0 932.4 -0.1 33
2019-07-31 21:00:00 24.9 9 Norte 22 Noroeste 0 932.3 -0.5 28
2019-07-31 20:00:00 25.9 10 Noroeste 21 Noroeste 0 932.1 -1.3 27
2019-07-31 19:00:00 26.3 7 Norte 18 Nordeste 0 932.5 -1.5 24
2019-07-31 18:00:00 26.3 9 Norte 18 Norte 0 932.8 -1.5 24
2019-07-31 17:00:00 26.2 5 Nordeste 18 Nordeste 0 933.4 -1.6 24
2019-07-31 16:00:00 26 8 Norte 27 Este 0 934 -1.8 25
2019-07-31 15:00:00 24.7 9 Norte 24 Nordeste 0 934.3 -1.8 30
2019-07-31 14:00:00 23.6 9 Nordeste 26 Nordeste 0 935 -1.6 34
2019-07-31 13:00:00 21.9 9 Norte 22 Norte 0 935.8 -1 40
2019-07-31 12:00:00 19.9 9 Norte 24 Nordeste 0 936.1 -0.7 49
2019-07-31 11:00:00 17.9 11 Norte 23 Norte 0 936.6 -0.4 56
2019-07-31 10:00:00 15.9 12 Nordeste 25 Nordeste 0 936.8 -0.3 62
2019-07-31 09:00:00 13.9 11 Norte 24 Norte 0 936.8 -0.5 69
2019-07-31 08:00:00 12.2 9 Norte 17 Norte 0 937 -0.2 77
2019-07-31 07:00:00 11.5 7 Norte 17 Norte 0 937.1 -0.4 81
2019-07-31 06:00:00 11.8 7 Norte 17 Norte 0 937.3 -0.3 80
2019-07-31 05:00:00 12.2 8 Nordeste 19 Nordeste 0 937.2 -0.6 78
2019-07-31 04:00:00 12.8 10 Norte 22 Nordeste 0 937.5 0.2 74
2019-07-31 03:00:00 13.4 10 Nordeste 29 Nordeste 0 937.6 0.4 71
2019-07-31 02:00:00 14.3 11 Nordeste 29 Nordeste 0 937.8 1.5 66
2019-07-31 01:00:00 15.5 12 Nordeste 26 Nordeste 0 937.3 1.5 60
2019-07-31 00:00:00 16.7 9 Nordeste 25 Nordeste 0 937.2 1.7 55
2019-07-30 23:00:00 18 5 Norte 9 Norte 0 936.3 0.7 35
2019-07-30 22:00:00 20 4 Norte 10 Este 0 935.8 0.1 33
2019-07-30 21:00:00 22.9 5 Nordeste 14 Este 0 935.5 -0.6 23
2019-07-30 20:00:00 24 8 Nordeste 27 Nordeste 0 935.6 -0.9 20
2019-07-30 19:00:00 24.9 5 Nordeste 20 Este 0 935.7 -1.2 21
2019-07-30 18:00:00 24.1 6 Nordeste 23 Nordeste 0 936.1 -1.2 20
2019-07-30 17:00:00 24 12 Nordeste 25 Nordeste 0 936.5 -1.3 20
2019-07-30 16:00:00 23 9 Este 26 Este 0 936.9 -1.3 24
2019-07-30 15:00:00 22.6 9 Nordeste 18 Este 0 937.3 -1 20
2019-07-30 14:00:00 20.8 9 Este 21 Nordeste 0 937.8 -0.4 31
2019-07-30 13:00:00 19.6 8 Este 21 Nordeste 0 938.2 -0.1 37
2019-07-30 12:00:00 18.3 9 Nordeste 29 Norte 0 938.3 0.4 44
2019-07-30 11:00:00 17.2 12 Norte 30 Norte 0 938.2 0.8 46
2019-07-30 10:00:00 15.4 17 Norte 31 Norte 0 938.3 1.5 52
2019-07-30 09:00:00 13.5 15 Norte 32 Noroeste 0 937.9 1.4 61
2019-07-30 08:00:00 11.3 14 Noroeste 30 Noroeste 0 937.4 0.9 70
2019-07-30 07:00:00 10.9 14 Noroeste 28 Noroeste 0 936.8 0.2 71
2019-07-30 06:00:00 11.8 12 Noroeste 33 Noroeste 0 936.5 0.3 67
2019-07-30 05:00:00 12.4 16 Noroeste 34 Noroeste 0 936.5 0.6 63
2019-07-30 04:00:00 12.8 15 Noroeste 33 Noroeste 0 936.6 0.8 62
2019-07-30 03:00:00 13.3 18 Noroeste 39 Noroeste 0 936.2 0.9 59
2019-07-30 02:00:00 13.7 14 Noroeste 30 Noroeste 0 935.9 1 62
2019-07-30 01:00:00 14.6 12 Noroeste 31 Noroeste 0 935.8 2.1 62
2019-07-30 00:00:00 15.8 9 Noroeste 22 Noroeste 0 935.3 2.4 56
2019-07-29 23:00:00 17.5 7 Noroeste 18 Noroeste 0 934.9 2.8 45
2019-07-29 22:00:00 19.3 11 Noroeste 33 Noroeste 0 933.7 1.8 34
2019-07-29 21:00:00 22.1 11 Noroeste 34 Sudoeste 0 932.9 1.3 30
2019-07-29 20:00:00 24.2 12 Oeste 32 Sudoeste 0 932.1 0.7 26
2019-07-29 19:00:00 25 15 Oeste 37 Oeste 0 931.9 0.6 23
2019-07-29 18:00:00 26.3 12 Oeste 41 Oeste 0 931.6 0.5 20
2019-07-29 17:00:00 25.8 14 Oeste 39 Sudoeste 0 931.4 0.3 22
2019-07-29 16:00:00 26 14 Oeste 35 Sudoeste 0 931.3 -0.1 24
2019-07-29 15:00:00 25.5 14 Oeste 32 Oeste 0 931.1 -0.3 28
2019-07-29 14:00:00 24.5 15 Sudoeste 36 Sudoeste 0 931.1 0 31
2019-07-29 13:00:00 23.3 13 Sudoeste 32 Sudoeste 0 931.4 0.3 35
2019-07-29 12:00:00 22 14 Sudoeste 33 Sudoeste 0 931.4 0.4 45
2019-07-29 11:00:00 21 14 Sudoeste 31 Sudoeste 0 931.1 0.5 52
2019-07-29 10:00:00 18.7 4 Sudoeste 13 Sur 0 931.1 1 50
2019-07-29 09:00:00 15.9 7 Sur 16 Sur 0 931 0.9 53
2019-07-29 08:00:00 14.1 7 Sur 13 Sur 0 930.6 0.6 58
2019-07-29 07:00:00 14 5 Sudoeste 9 Sudoeste 0 930.1 0.3 58
2019-07-29 06:00:00 14.1 6 Sudoeste 9 Sur 0 930.1 0.3 61
2019-07-29 05:00:00 15.1 3 Sur 11 Noroeste 0 930 0.4 61
2019-07-29 04:00:00 17.3 6 Oeste 15 Oeste 0 929.8 0.2 52
2019-07-29 03:00:00 18 8 Oeste 16 Oeste 0 929.8 0.2 49
2019-07-29 02:00:00 19.2 5 Oeste 18 Oeste 0 929.6 0.1 42
2019-07-29 01:00:00 20.6 8 Oeste 15 Oeste 0 929.6 0.5 35
2019-07-29 00:00:00 22 5 Oeste 16 Sudoeste 0 929.6 0.7 30
2019-07-28 23:00:00 22.9 6 Sudoeste 18 Sudoeste 0 929.5 0.8 27
2019-07-28 22:00:00 24.4 9 Sudoeste 17 Sudoeste 0 929.1 0.3 25
2019-07-28 21:00:00 26.6 9 Sudoeste 18 Sudoeste 0 928.9 -0.5 21
2019-07-28 20:00:00 27.9 12 Sudoeste 22 Sudoeste 0 928.7 -1.3 17
2019-07-28 19:00:00 28.2 9 Sur 23 Sur 0 928.8 -2 20
2019-07-28 18:00:00 27.3 7 Sur 24 Sur 0 929.4 -1.9 22
2019-07-28 17:00:00 26 8 Sudoeste 23 Sudoeste 0 930 -1.8 25
2019-07-28 16:00:00 24.6 5 Sudeste 23 Noroeste 0 930.8 -1.6 29
2019-07-28 15:00:00 23.3 6 Sudeste 20 Sur 0 931.3 -1.5 34
2019-07-28 14:00:00 21.8 6 Sudoeste 19 Sudeste 0 931.8 -1.3 39
2019-07-28 13:00:00 20.9 7 Sudoeste 18 Sudoeste 0 932.4 -0.8 42
2019-07-28 12:00:00 19.3 6 Este 20 Sudeste 0 932.8 -0.3 48
2019-07-28 11:00:00 17.6 4 Este 15 Este 0 933.1 0.1 57
2019-07-28 10:00:00 15.8 6 Este 12 Sudeste 0 933.2 0.3 66
2019-07-28 09:00:00 14.6 4 Nordeste 8 Nordeste 0 933.1 0.5 71
2019-07-28 08:00:00 13.2 2 Norte 5 Noroeste 0 933 0.3 76
2019-07-28 07:00:00 11.8 0 Calma 6 Norte 0 932.9 -0.3 82
2019-07-28 06:00:00 11.5 3 Norte 5 Norte 0 932.6 -0.5 81
2019-07-28 05:00:00 11.9 3 Norte 13 Este 0 932.7 -0.3 81
2019-07-28 04:00:00 12.7 2 Nordeste 5 Norte 0 933.2 0.4 79
2019-07-28 03:00:00 13.2 3 Norte 8 Nordeste 0 933.1 0.6 77
2019-07-28 02:00:00 14.4 4 Nordeste 9 Este 0 933 1.2 73
2019-07-28 01:00:00 15 3 Este 16 Norte 0 932.8 1.9 71
2019-07-28 00:00:00 16.5 10 Nordeste 23 Norte 0 932.5 2.5 60
2019-07-27 23:00:00 17.2 12 Norte 22 Norte 0 931.8 2.5 59
2019-07-26 12:00:00 22.2 8 Noroeste 23 Norte 0 932.9 -0.1 39
2019-07-26 11:00:00 20.5 11 Noroeste 22 Noroeste 0 933 0.2 43
2019-07-26 10:00:00 18.4 10 Noroeste 23 Noroeste 0 933.1 0.2 50
2019-07-26 09:00:00 16.6 8 Norte 20 Norte 0 933 0.1 58
2019-07-26 08:00:00 16.1 8 Norte 21 Norte 0 932.8 -0.1 59
2019-07-26 07:00:00 17.1 2 Norte 12 Norte 0 932.9 -0.2 61
2019-07-26 06:00:00 17.9 4 Noroeste 12 Noroeste 0 932.9 -0.5 66
2019-07-26 05:00:00 18 4 Noroeste 16 Norte 0 932.9 -0.1 67
2019-07-26 04:00:00 18.2 3 Norte 17 Norte 0 933.1 0.1 69
2019-07-26 03:00:00 18.7 8 Norte 23 Noroeste 0 933.4 0.7 69
2019-07-26 02:00:00 19.2 12 Noroeste 28 Noroeste 0 933 0.3 70
2019-07-26 01:00:00 20.9 6 Noroeste 19 Oeste 0 933 1 65
2019-07-26 00:00:00 22 9 Oeste 23 Oeste 0 932.7 0.9 59
2019-07-25 23:00:00 22.6 7 Oeste 26 Oeste 0 932.7 1.4 59
2019-07-25 22:00:00 23.7 12 Noroeste 23 Noroeste 0 932 1 52
2019-07-25 21:00:00 25.3 12 Noroeste 35 Oeste 0 931.8 0.8 44
2019-07-25 20:00:00 27.8 10 Oeste 32 Oeste 0 931.3 -0.1 32
2019-07-25 19:00:00 30.6 12 Oeste 30 Sudoeste 0 931 -0.7 28
2019-07-25 18:00:00 32 16 Sudoeste 37 Sudoeste 0 931 -1 20
2019-07-25 17:00:00 31.7 15 Sudoeste 37 Sudoeste 0 931.4 -0.9 23
2019-07-25 16:00:00 31.5 12 Sudoeste 36 Sudoeste 0 931.7 -0.8 24
2019-07-25 15:00:00 30.7 15 Sudoeste 42 Sudoeste 0 932 -0.6 23
2019-07-25 14:00:00 30.2 17 Sur 35 Sur 0 932.3 -0.4 22
2019-07-25 13:00:00 28.5 14 Sudoeste 29 Sur 0 932.5 -0.4 27
2019-07-25 12:00:00 27.3 10 Sudoeste 21 Sur 0 932.6 -0.3 32
2019-07-25 11:00:00 25.2 8 Sudoeste 16 Sur 0 932.7 0.1 37
2019-07-25 10:00:00 23.4 6 Sur 14 Sudoeste 0 932.9 0.5 42
2019-07-25 09:00:00 20.8 6 Sudoeste 17 Sudoeste 0 932.9 0.8 50
2019-07-25 08:00:00 18.8 5 Sudoeste 15 Sudoeste 0 932.6 0.6 59
2019-07-25 07:00:00 18.4 5 Sur 11 Sur 0 932.4 0.2 59
2019-07-25 06:00:00 18.4 4 Sur 9 Sur 0 932.1 0.1 57
2019-07-25 05:00:00 19.4 0 Calma 7 Sudoeste 0 932 -0.1 58
2019-07-25 04:00:00 19.8 2 Sudoeste 8 Noroeste 0 932.2 -0.1 57
2019-07-25 03:00:00 22.7 6 Oeste 18 Noroeste 0 932 -0.1 41
2019-07-25 02:00:00 23.4 7 Oeste 18 Oeste 0 932.1 0.1 41
2019-07-25 01:00:00 24.9 8 Oeste 23 Noroeste 0 932.3 1.1 39
2019-07-25 00:00:00 25.9 11 Oeste 25 Oeste 0 932.1 1.1 38
2019-07-24 23:00:00 27.6 9 Oeste 22 Noroeste 0 932 1.1 33
2019-07-24 22:00:00 30.6 7 Sudoeste 22 Sudoeste 0 931.2 0.2 22
2019-07-24 21:00:00 32.4 12 Sudoeste 32 Sudoeste 0 931 -0.6 19
2019-07-24 20:00:00 33.8 14 Sudoeste 34 Sudoeste 0 930.9 -1.2 17
2019-07-24 19:00:00 34.7 13 Sudoeste 34 Sur 0 931 -1.6 17
2019-07-24 18:00:00 35.1 14 Sur 35 Sur 0 931.6 -1.7 16
2019-07-24 17:00:00 34.8 16 Sudoeste 32 Sudoeste 0 932.1 -1.8 16
2019-07-24 16:00:00 33.7 15 Sudoeste 38 Sur 0 932.6 -1.6 21
2019-07-24 15:00:00 32.6 18 Sudoeste 35 Sudoeste 0 933.3 -1.3 23
2019-07-24 14:00:00 31.3 10 Sur 24 Sudeste 0 933.9 -1 29
2019-07-24 13:00:00 29.8 8 Sur 16 Sudoeste 0 934.2 -0.7 34
2019-07-24 12:00:00 27.3 4 Nordeste 15 Sudeste 0 934.6 -0.3 41
2019-07-24 11:00:00 24.7 5 Este 16 Nordeste 0 934.9 0.3 49
2019-07-24 10:00:00 22.1 9 Nordeste 19 Nordeste 0 934.9 0.2 61
2019-07-24 09:00:00 20.2 8 Norte 18 Norte 0 934.9 0.2 71
2019-07-24 08:00:00 18.4 4 Noroeste 12 Noroeste 0 934.6 -0.1 78
2019-07-24 07:00:00 18 8 Noroeste 18 Noroeste 0 934.7 -0.3 80
2019-07-24 06:00:00 18.7 4 Noroeste 10 Noroeste 0 934.7 -0.2 78
2019-07-24 05:00:00 19.3 3 Norte 13 Norte 0 934.7 -0.3 74
2019-07-24 04:00:00 19.9 8 Norte 17 Norte 0 935 -0.5 73
2019-07-24 03:00:00 20.7 2 Sur 8 Sudeste 0 934.9 -2.1 70
2019-07-24 02:00:00 22.3 3 Nordeste 9 Noroeste 0 935 0.1 62
2019-07-24 01:00:00 21.9 5 Noroeste 21 Sur 0 935.5 1.1 62
2019-07-24 00:00:00 21.4 10 Nordeste 39 Sudeste 0 937 3.3 67